Valley Lodge, Texas
Current Conditions -  °F | °C
As of 8:55 PM on Friday 19 Dec 2014 (Local Time) from KTME Reporting Station
Overcast Overcast  
Wind Chill: 54°   Ceiling: 1000
Heat Index: 54°   Visibility: 10mi
Dew Point: 50°   Wind: 15mph
Humidity: 88%   Direction: 10°N
Pressure: 30.13"   Gusts: 18mph
Location:  29.688°N, 95.9525°W
Report Text: KTME 200255Z AUTO 01013G16KT 10SM BKN010 OVC020 12/10 A3013 RMK AO2
Loading
Personal Weather Stations






























Interactive Weather Map New forecast layout! Learn more

10-Day Weather Forecast

Advertisements
Track Severe Weather on mobile